Terminal Aerodrome Forecast
Issued by NWS

Home | Current Version | Previous Version | Text Only | Print | Product List | Glossary On
Versions: 1 2 3 4 5 6 7 8 9 10 11 12 13 14
587
FTUS41 KCAR 140559
TAFHUL
TAF
KHUL 140559Z 1406/1506 34009KT 6SM -SHSN SCT020 OVC040
     FM141100 31010KT P6SM SCT150
     FM142000 27011KT P6SM SCT130=

USA.gov is the U.S. government's official web portal to all federal, state and local government web resources and services.